sensor_id;sensor_type;location;lat;lon;timestamp;P1;durP1;ratioP1;P2;durP2;ratioP2
50291;SDS011;36190;54.980;73.388;2022-07-23T00:00:50;11.50;;;4.55;;
50291;SDS011;36190;54.980;73.388;2022-07-23T00:03:17;7.78;;;4.00;;
50291;SDS011;36190;54.980;73.388;2022-07-23T00:05:46;11.60;;;4.70;;
50291;SDS011;36190;54.980;73.388;2022-07-23T00:08:14;12.95;;;3.90;;
50291;SDS011;36190;54.980;73.388;2022-07-23T00:10:41;12.23;;;4.00;;
50291;SDS011;36190;54.980;73.388;2022-07-23T00:13:08;10.75;;;3.92;;
50291;SDS011;36190;54.980;73.388;2022-07-23T00:15:37;8.07;;;3.90;;
50291;SDS011;36190;54.980;73.388;2022-07-23T00:18:04;9.52;;;3.85;;
50291;SDS011;36190;54.980;73.388;2022-07-23T00:20:32;10.02;;;3.97;;
50291;SDS011;36190;54.980;73.388;2022-07-23T00:23:01;9.63;;;4.00;;
50291;SDS011;36190;54.980;73.388;2022-07-23T00:25:28;8.93;;;3.80;;
50291;SDS011;36190;54.980;73.388;2022-07-23T00:27:55;9.13;;;4.38;;
50291;SDS011;36190;54.980;73.388;2022-07-23T00:30:23;8.40;;;3.95;;
50291;SDS011;36190;54.980;73.388;2022-07-23T00:32:52;8.95;;;4.18;;
50291;SDS011;36190;54.980;73.388;2022-07-23T00:35:21;9.40;;;4.15;;
50291;SDS011;36190;54.980;73.388;2022-07-23T00:37:50;11.48;;;4.00;;
50291;SDS011;36190;54.980;73.388;2022-07-23T00:40:19;10.52;;;4.10;;
50291;SDS011;36190;54.980;73.388;2022-07-23T00:42:46;10.25;;;4.32;;
50291;SDS011;36190;54.980;73.388;2022-07-23T00:45:14;8.57;;;4.07;;
50291;SDS011;36190;54.980;73.388;2022-07-23T00:47:41;12.98;;;4.10;;
50291;SDS011;36190;54.980;73.388;2022-07-23T00:50:09;11.98;;;4.60;;
50291;SDS011;36190;54.980;73.388;2022-07-23T00:52:37;12.88;;;4.53;;
50291;SDS011;36190;54.980;73.388;2022-07-23T00:55:06;9.02;;;4.03;;
50291;SDS011;36190;54.980;73.388;2022-07-23T00:57:36;9.60;;;4.05;;
50291;SDS011;36190;54.980;73.388;2022-07-23T01:00:05;13.50;;;4.40;;
50291;SDS011;36190;54.980;73.388;2022-07-23T01:02:36;9.60;;;4.15;;
50291;SDS011;36190;54.980;73.388;2022-07-23T01:05:04;11.10;;;4.22;;
50291;SDS011;36190;54.980;73.388;2022-07-23T01:07:32;10.48;;;4.35;;
50291;SDS011;36190;54.980;73.388;2022-07-23T01:10:00;9.93;;;4.45;;
50291;SDS011;36190;54.980;73.388;2022-07-23T01:12:28;12.98;;;4.82;;
50291;SDS011;36190;54.980;73.388;2022-07-23T01:14:57;10.65;;;4.20;;
50291;SDS011;36190;54.980;73.388;2022-07-23T01:17:26;10.48;;;4.45;;
50291;SDS011;36190;54.980;73.388;2022-07-23T01:19:53;9.32;;;4.03;;
50291;SDS011;36190;54.980;73.388;2022-07-23T01:22:21;9.80;;;4.22;;
50291;SDS011;36190;54.980;73.388;2022-07-23T01:24:51;10.38;;;4.55;;
50291;SDS011;36190;54.980;73.388;2022-07-23T01:27:19;8.38;;;4.10;;
50291;SDS011;36190;54.980;73.388;2022-07-23T01:29:46;12.38;;;5.10;;
50291;SDS011;36190;54.980;73.388;2022-07-23T01:32:14;8.38;;;4.15;;
50291;SDS011;36190;54.980;73.388;2022-07-23T01:34:41;9.85;;;4.13;;
50291;SDS011;36190;54.980;73.388;2022-07-23T01:37:08;9.40;;;4.47;;
50291;SDS011;36190;54.980;73.388;2022-07-23T01:39:36;8.98;;;4.43;;
50291;SDS011;36190;54.980;73.388;2022-07-23T01:42:05;8.48;;;4.18;;
50291;SDS011;36190;54.980;73.388;2022-07-23T01:44:32;9.20;;;4.45;;
50291;SDS011;36190;54.980;73.388;2022-07-23T01:47:00;9.55;;;4.10;;
50291;SDS011;36190;54.980;73.388;2022-07-23T01:49:27;9.75;;;4.40;;
50291;SDS011;36190;54.980;73.388;2022-07-23T01:51:54;10.50;;;4.63;;
50291;SDS011;36190;54.980;73.388;2022-07-23T01:54:28;10.15;;;4.07;;
50291;SDS011;36190;54.980;73.388;2022-07-23T01:56:56;10.57;;;3.95;;
50291;SDS011;36190;54.980;73.388;2022-07-23T01:59:26;9.77;;;4.05;;
50291;SDS011;36190;54.980;73.388;2022-07-23T02:01:54;11.63;;;3.95;;
50291;SDS011;36190;54.980;73.388;2022-07-23T02:04:23;10.05;;;4.65;;
50291;SDS011;36190;54.980;73.388;2022-07-23T02:06:51;10.77;;;5.53;;
50291;SDS011;36190;54.980;73.388;2022-07-23T02:09:19;13.60;;;5.60;;
50291;SDS011;36190;54.980;73.388;2022-07-23T02:11:46;13.15;;;5.57;;
50291;SDS011;36190;54.980;73.388;2022-07-23T02:14:14;12.77;;;6.07;;
50291;SDS011;36190;54.980;73.388;2022-07-23T02:16:43;12.48;;;6.05;;
50291;SDS011;36190;54.980;73.388;2022-07-23T02:19:10;12.63;;;6.05;;
50291;SDS011;36190;54.980;73.388;2022-07-23T02:21:37;12.07;;;5.85;;
50291;SDS011;36190;54.980;73.388;2022-07-23T02:24:05;15.73;;;5.88;;
50291;SDS011;36190;54.980;73.388;2022-07-23T02:26:32;13.02;;;6.03;;
50291;SDS011;36190;54.980;73.388;2022-07-23T02:29:00;15.38;;;5.63;;
50291;SDS011;36190;54.980;73.388;2022-07-23T02:31:28;16.08;;;5.75;;
50291;SDS011;36190;54.980;73.388;2022-07-23T02:33:57;13.68;;;5.00;;
50291;SDS011;36190;54.980;73.388;2022-07-23T02:36:24;10.07;;;4.57;;
50291;SDS011;36190;54.980;73.388;2022-07-23T02:38:52;11.52;;;5.00;;
50291;SDS011;36190;54.980;73.388;2022-07-23T02:41:19;13.23;;;5.00;;
50291;SDS011;36190;54.980;73.388;2022-07-23T02:43:47;11.45;;;4.82;;
50291;SDS011;36190;54.980;73.388;2022-07-23T02:46:14;15.48;;;5.35;;
50291;SDS011;36190;54.980;73.388;2022-07-23T02:48:41;13.43;;;5.28;;
50291;SDS011;36190;54.980;73.388;2022-07-23T02:51:10;12.63;;;5.07;;
50291;SDS011;36190;54.980;73.388;2022-07-23T02:53:37;11.23;;;5.10;;
50291;SDS011;36190;54.980;73.388;2022-07-23T02:56:05;12.27;;;5.43;;
50291;SDS011;36190;54.980;73.388;2022-07-23T02:58:32;11.65;;;5.78;;
50291;SDS011;36190;54.980;73.388;2022-07-23T03:01:00;12.25;;;5.43;;
50291;SDS011;36190;54.980;73.388;2022-07-23T03:03:27;12.90;;;5.20;;
50291;SDS011;36190;54.980;73.388;2022-07-23T03:05:54;12.13;;;4.50;;
50291;SDS011;36190;54.980;73.388;2022-07-23T03:08:23;10.70;;;5.05;;
50291;SDS011;36190;54.980;73.388;2022-07-23T03:10:51;12.25;;;4.97;;
50291;SDS011;36190;54.980;73.388;2022-07-23T03:13:18;11.73;;;5.00;;
50291;SDS011;36190;54.980;73.388;2022-07-23T03:15:45;12.20;;;5.03;;
50291;SDS011;36190;54.980;73.388;2022-07-23T03:18:13;11.45;;;4.40;;
50291;SDS011;36190;54.980;73.388;2022-07-23T03:20:40;13.75;;;4.72;;
50291;SDS011;36190;54.980;73.388;2022-07-23T03:23:07;12.80;;;4.60;;
50291;SDS011;36190;54.980;73.388;2022-07-23T03:25:36;10.43;;;4.90;;
50291;SDS011;36190;54.980;73.388;2022-07-23T03:28:04;10.40;;;4.75;;
50291;SDS011;36190;54.980;73.388;2022-07-23T03:30:31;10.60;;;4.65;;
50291;SDS011;36190;54.980;73.388;2022-07-23T03:32:59;11.55;;;4.35;;
50291;SDS011;36190;54.980;73.388;2022-07-23T03:35:26;12.57;;;5.32;;
50291;SDS011;36190;54.980;73.388;2022-07-23T03:37:53;11.18;;;4.60;;
50291;SDS011;36190;54.980;73.388;2022-07-23T03:40:21;11.68;;;4.82;;
50291;SDS011;36190;54.980;73.388;2022-07-23T03:42:50;10.80;;;4.60;;
50291;SDS011;36190;54.980;73.388;2022-07-23T03:45:17;10.70;;;4.43;;
50291;SDS011;36190;54.980;73.388;2022-07-23T03:47:44;11.43;;;4.70;;
50291;SDS011;36190;54.980;73.388;2022-07-23T03:50:12;12.32;;;4.93;;
50291;SDS011;36190;54.980;73.388;2022-07-23T03:52:39;14.63;;;4.90;;
50291;SDS011;36190;54.980;73.388;2022-07-23T03:55:07;9.93;;;4.57;;
50291;SDS011;36190;54.980;73.388;2022-07-23T03:57:34;14.60;;;4.43;;
50291;SDS011;36190;54.980;73.388;2022-07-23T04:00:04;12.35;;;4.65;;
50291;SDS011;36190;54.980;73.388;2022-07-23T04:02:34;9.68;;;4.43;;
50291;SDS011;36190;54.980;73.388;2022-07-23T04:05:01;9.55;;;4.38;;
50291;SDS011;36190;54.980;73.388;2022-07-23T04:07:29;10.88;;;4.78;;
50291;SDS011;36190;54.980;73.388;2022-07-23T04:09:57;11.07;;;5.00;;
50291;SDS011;36190;54.980;73.388;2022-07-23T04:12:25;11.35;;;4.70;;
50291;SDS011;36190;54.980;73.388;2022-07-23T04:14:53;13.30;;;5.10;;
50291;SDS011;36190;54.980;73.388;2022-07-23T04:17:21;14.70;;;5.05;;
50291;SDS011;36190;54.980;73.388;2022-07-23T04:19:49;13.40;;;4.93;;
50291;SDS011;36190;54.980;73.388;2022-07-23T04:22:16;9.18;;;4.60;;
50291;SDS011;36190;54.980;73.388;2022-07-23T04:24:43;14.48;;;4.75;;
50291;SDS011;36190;54.980;73.388;2022-07-23T04:27:11;10.15;;;4.97;;
50291;SDS011;36190;54.980;73.388;2022-07-23T04:29:38;12.15;;;4.75;;
50291;SDS011;36190;54.980;73.388;2022-07-23T04:32:05;13.88;;;4.68;;
50291;SDS011;36190;54.980;73.388;2022-07-23T04:34:34;11.75;;;5.00;;
50291;SDS011;36190;54.980;73.388;2022-07-23T04:37:02;11.13;;;5.60;;
50291;SDS011;36190;54.980;73.388;2022-07-23T04:39:29;8.90;;;4.63;;
50291;SDS011;36190;54.980;73.388;2022-07-23T04:41:56;10.50;;;4.90;;
50291;SDS011;36190;54.980;73.388;2022-07-23T04:44:24;9.75;;;4.78;;
50291;SDS011;36190;54.980;73.388;2022-07-23T04:46:51;10.40;;;5.25;;
50291;SDS011;36190;54.980;73.388;2022-07-23T04:49:19;13.73;;;5.30;;
50291;SDS011;36190;54.980;73.388;2022-07-23T04:51:47;10.55;;;4.70;;
50291;SDS011;36190;54.980;73.388;2022-07-23T04:54:15;10.32;;;5.10;;
50291;SDS011;36190;54.980;73.388;2022-07-23T04:56:42;9.95;;;4.43;;
50291;SDS011;36190;54.980;73.388;2022-07-23T04:59:10;15.57;;;4.70;;
50291;SDS011;36190;54.980;73.388;2022-07-23T05:01:37;9.50;;;4.15;;
50291;SDS011;36190;54.980;73.388;2022-07-23T05:04:06;8.90;;;4.38;;
50291;SDS011;36190;54.980;73.388;2022-07-23T05:06:33;8.63;;;3.97;;
50291;SDS011;36190;54.980;73.388;2022-07-23T05:09:02;9.48;;;4.05;;
50291;SDS011;36190;54.980;73.388;2022-07-23T05:11:29;7.45;;;3.80;;
50291;SDS011;36190;54.980;73.388;2022-07-23T05:13:57;8.75;;;3.97;;
50291;SDS011;36190;54.980;73.388;2022-07-23T05:16:24;7.63;;;4.20;;
50291;SDS011;36190;54.980;73.388;2022-07-23T05:18:51;7.63;;;4.10;;
50291;SDS011;36190;54.980;73.388;2022-07-23T05:21:19;9.18;;;4.55;;
50291;SDS011;36190;54.980;73.388;2022-07-23T05:23:46;9.70;;;4.03;;
50291;SDS011;36190;54.980;73.388;2022-07-23T05:26:15;8.98;;;4.20;;
50291;SDS011;36190;54.980;73.388;2022-07-23T05:28:42;8.38;;;3.92;;
50291;SDS011;36190;54.980;73.388;2022-07-23T05:31:10;8.98;;;4.43;;
50291;SDS011;36190;54.980;73.388;2022-07-23T05:33:37;10.38;;;4.28;;
50291;SDS011;36190;54.980;73.388;2022-07-23T05:36:05;11.05;;;3.95;;
50291;SDS011;36190;54.980;73.388;2022-07-23T05:38:33;10.45;;;4.22;;
50291;SDS011;36190;54.980;73.388;2022-07-23T05:41:00;8.65;;;4.07;;
50291;SDS011;36190;54.980;73.388;2022-07-23T05:43:29;8.63;;;4.10;;
50291;SDS011;36190;54.980;73.388;2022-07-23T05:45:57;10.45;;;4.28;;
50291;SDS011;36190;54.980;73.388;2022-07-23T05:48:24;10.32;;;4.32;;
50291;SDS011;36190;54.980;73.388;2022-07-23T05:50:51;9.82;;;4.40;;
50291;SDS011;36190;54.980;73.388;2022-07-23T05:53:19;9.75;;;3.97;;
50291;SDS011;36190;54.980;73.388;2022-07-23T05:55:46;7.60;;;3.70;;
50291;SDS011;36190;54.980;73.388;2022-07-23T05:58:14;11.20;;;4.00;;
50291;SDS011;36190;54.980;73.388;2022-07-23T06:00:42;8.55;;;4.20;;
50291;SDS011;36190;54.980;73.388;2022-07-23T06:03:10;12.02;;;4.45;;
50291;SDS011;36190;54.980;73.388;2022-07-23T06:05:37;9.07;;;3.95;;
50291;SDS011;36190;54.980;73.388;2022-07-23T06:08:05;10.77;;;3.85;;
50291;SDS011;36190;54.980;73.388;2022-07-23T06:10:32;8.60;;;3.83;;
50291;SDS011;36190;54.980;73.388;2022-07-23T06:13:00;10.55;;;4.13;;
50291;SDS011;36190;54.980;73.388;2022-07-23T06:15:27;8.55;;;4.00;;
50291;SDS011;36190;54.980;73.388;2022-07-23T06:17:57;9.32;;;4.22;;
50291;SDS011;36190;54.980;73.388;2022-07-23T06:20:24;7.82;;;4.00;;
50291;SDS011;36190;54.980;73.388;2022-07-23T06:22:52;10.15;;;4.45;;
50291;SDS011;36190;54.980;73.388;2022-07-23T06:25:19;10.00;;;3.92;;
50291;SDS011;36190;54.980;73.388;2022-07-23T06:27:46;10.07;;;4.18;;
50291;SDS011;36190;54.980;73.388;2022-07-23T06:30:14;10.32;;;4.78;;
50291;SDS011;36190;54.980;73.388;2022-07-23T06:32:42;11.95;;;4.50;;
50291;SDS011;36190;54.980;73.388;2022-07-23T06:35:12;9.02;;;4.40;;
50291;SDS011;36190;54.980;73.388;2022-07-23T06:37:39;10.65;;;4.97;;
50291;SDS011;36190;54.980;73.388;2022-07-23T06:40:07;9.77;;;4.30;;
50291;SDS011;36190;54.980;73.388;2022-07-23T06:42:35;11.32;;;4.72;;
50291;SDS011;36190;54.980;73.388;2022-07-23T06:45:04;9.52;;;4.20;;
50291;SDS011;36190;54.980;73.388;2022-07-23T06:47:32;9.18;;;4.50;;
50291;SDS011;36190;54.980;73.388;2022-07-23T06:50:00;8.48;;;4.18;;
50291;SDS011;36190;54.980;73.388;2022-07-23T06:52:29;9.63;;;4.35;;
50291;SDS011;36190;54.980;73.388;2022-07-23T06:54:56;9.20;;;4.53;;
50291;SDS011;36190;54.980;73.388;2022-07-23T06:57:23;8.15;;;4.28;;
50291;SDS011;36190;54.980;73.388;2022-07-23T06:59:51;8.13;;;4.45;;
50291;SDS011;36190;54.980;73.388;2022-07-23T07:02:19;8.02;;;4.10;;
50291;SDS011;36190;54.980;73.388;2022-07-23T07:04:46;9.45;;;3.78;;
50291;SDS011;36190;54.980;73.388;2022-07-23T07:07:14;8.82;;;3.90;;
50291;SDS011;36190;54.980;73.388;2022-07-23T07:09:43;7.55;;;3.92;;
50291;SDS011;36190;54.980;73.388;2022-07-23T07:12:10;7.32;;;3.83;;
50291;SDS011;36190;54.980;73.388;2022-07-23T07:14:38;8.73;;;3.92;;
50291;SDS011;36190;54.980;73.388;2022-07-23T07:17:05;8.82;;;3.95;;
50291;SDS011;36190;54.980;73.388;2022-07-23T07:19:32;8.10;;;4.47;;
50291;SDS011;36190;54.980;73.388;2022-07-23T07:22:00;6.60;;;3.45;;
50291;SDS011;36190;54.980;73.388;2022-07-23T07:24:27;7.30;;;3.28;;
50291;SDS011;36190;54.980;73.388;2022-07-23T07:26:56;9.77;;;3.90;;
50291;SDS011;36190;54.980;73.388;2022-07-23T07:29:23;7.65;;;3.72;;
50291;SDS011;36190;54.980;73.388;2022-07-23T07:31:51;9.15;;;3.95;;
50291;SDS011;36190;54.980;73.388;2022-07-23T07:34:18;8.75;;;4.10;;
50291;SDS011;36190;54.980;73.388;2022-07-23T07:36:45;9.00;;;3.88;;
50291;SDS011;36190;54.980;73.388;2022-07-23T07:39:13;9.00;;;3.88;;
50291;SDS011;36190;54.980;73.388;2022-07-23T07:41:40;8.43;;;4.30;;
50291;SDS011;36190;54.980;73.388;2022-07-23T07:44:09;9.07;;;4.00;;
50291;SDS011;36190;54.980;73.388;2022-07-23T07:46:36;8.48;;;3.80;;
50291;SDS011;36190;54.980;73.388;2022-07-23T07:49:03;10.93;;;4.10;;
50291;SDS011;36190;54.980;73.388;2022-07-23T07:51:31;8.00;;;4.28;;
50291;SDS011;36190;54.980;73.388;2022-07-23T07:53:59;7.22;;;3.97;;
50291;SDS011;36190;54.980;73.388;2022-07-23T07:56:26;7.93;;;3.97;;
50291;SDS011;36190;54.980;73.388;2022-07-23T07:58:54;8.45;;;4.28;;
50291;SDS011;36190;54.980;73.388;2022-07-23T08:01:23;10.18;;;4.90;;
50291;SDS011;36190;54.980;73.388;2022-07-23T08:03:50;7.82;;;4.28;;
50291;SDS011;36190;54.980;73.388;2022-07-23T08:06:17;9.55;;;4.47;;
50291;SDS011;36190;54.980;73.388;2022-07-23T08:08:45;7.97;;;4.20;;
50291;SDS011;36190;54.980;73.388;2022-07-23T08:11:12;12.45;;;4.75;;
50291;SDS011;36190;54.980;73.388;2022-07-23T08:13:39;10.13;;;4.70;;
50291;SDS011;36190;54.980;73.388;2022-07-23T08:16:09;8.90;;;4.53;;
50291;SDS011;36190;54.980;73.388;2022-07-23T08:18:38;7.75;;;4.45;;
50291;SDS011;36190;54.980;73.388;2022-07-23T08:21:05;8.68;;;4.50;;
50291;SDS011;36190;54.980;73.388;2022-07-23T08:23:33;7.93;;;4.47;;
50291;SDS011;36190;54.980;73.388;2022-07-23T08:26:00;8.50;;;4.70;;
50291;SDS011;36190;54.980;73.388;2022-07-23T08:28:28;10.60;;;5.47;;
50291;SDS011;36190;54.980;73.388;2022-07-23T08:30:58;10.05;;;4.57;;
50291;SDS011;36190;54.980;73.388;2022-07-23T08:33:26;9.38;;;5.50;;
50291;SDS011;36190;54.980;73.388;2022-07-23T08:35:54;12.07;;;5.38;;
50291;SDS011;36190;54.980;73.388;2022-07-23T08:38:22;11.15;;;5.00;;
50291;SDS011;36190;54.980;73.388;2022-07-23T08:40:51;12.82;;;4.80;;
50291;SDS011;36190;54.980;73.388;2022-07-23T08:43:20;9.30;;;4.75;;
50291;SDS011;36190;54.980;73.388;2022-07-23T08:45:49;9.13;;;4.50;;
50291;SDS011;36190;54.980;73.388;2022-07-23T08:48:18;7.88;;;3.90;;
50291;SDS011;36190;54.980;73.388;2022-07-23T08:50:47;8.70;;;4.28;;
50291;SDS011;36190;54.980;73.388;2022-07-23T08:53:17;9.80;;;4.88;;
50291;SDS011;36190;54.980;73.388;2022-07-23T08:55:45;13.10;;;5.57;;
50291;SDS011;36190;54.980;73.388;2022-07-23T08:58:14;10.70;;;5.35;;
50291;SDS011;36190;54.980;73.388;2022-07-23T09:00:42;13.85;;;5.10;;
50291;SDS011;36190;54.980;73.388;2022-07-23T09:03:11;15.25;;;5.88;;
50291;SDS011;36190;54.980;73.388;2022-07-23T09:05:42;9.10;;;5.20;;
50291;SDS011;36190;54.980;73.388;2022-07-23T09:08:11;11.65;;;6.07;;
50291;SDS011;36190;54.980;73.388;2022-07-23T09:10:45;12.85;;;5.32;;
50291;SDS011;36190;54.980;73.388;2022-07-23T09:13:24;13.68;;;5.05;;
50291;SDS011;36190;54.980;73.388;2022-07-23T09:15:57;10.93;;;5.13;;
50291;SDS011;36190;54.980;73.388;2022-07-23T09:18:28;17.02;;;5.80;;
50291;SDS011;36190;54.980;73.388;2022-07-23T09:21:10;11.30;;;5.65;;
50291;SDS011;36190;54.980;73.388;2022-07-23T09:23:40;11.93;;;5.22;;
50291;SDS011;36190;54.980;73.388;2022-07-23T09:29:05;11.25;;;5.45;;
50291;SDS011;36190;54.980;73.388;2022-07-23T09:31:42;10.05;;;5.43;;
50291;SDS011;36190;54.980;73.388;2022-07-23T09:34:13;10.68;;;5.03;;
50291;SDS011;36190;54.980;73.388;2022-07-23T09:36:43;13.15;;;5.25;;
50291;SDS011;36190;54.980;73.388;2022-07-23T09:39:11;25.63;;;5.90;;
50291;SDS011;36190;54.980;73.388;2022-07-23T09:41:41;12.48;;;4.28;;
50291;SDS011;36190;54.980;73.388;2022-07-23T09:44:11;7.93;;;3.58;;
50291;SDS011;36190;54.980;73.388;2022-07-23T09:46:41;8.07;;;3.70;;
50291;SDS011;36190;54.980;73.388;2022-07-23T09:49:10;10.13;;;4.13;;
50291;SDS011;36190;54.980;73.388;2022-07-23T09:51:49;9.75;;;4.72;;
50291;SDS011;36190;54.980;73.388;2022-07-23T09:54:26;11.63;;;5.47;;
50291;SDS011;36190;54.980;73.388;2022-07-23T09:56:59;12.88;;;5.60;;
50291;SDS011;36190;54.980;73.388;2022-07-23T09:59:28;13.20;;;5.65;;
50291;SDS011;36190;54.980;73.388;2022-07-23T10:01:58;12.07;;;5.43;;
50291;SDS011;36190;54.980;73.388;2022-07-23T10:04:27;9.80;;;4.68;;
50291;SDS011;36190;54.980;73.388;2022-07-23T10:06:56;12.15;;;5.00;;
50291;SDS011;36190;54.980;73.388;2022-07-23T10:09:26;10.68;;;4.68;;
50291;SDS011;36190;54.980;73.388;2022-07-23T10:12:00;11.10;;;4.80;;
50291;SDS011;36190;54.980;73.388;2022-07-23T10:14:43;10.75;;;5.15;;
50291;SDS011;36190;54.980;73.388;2022-07-23T10:17:11;9.80;;;4.60;;
50291;SDS011;36190;54.980;73.388;2022-07-23T10:19:39;7.75;;;4.10;;
50291;SDS011;36190;54.980;73.388;2022-07-23T10:22:07;13.65;;;5.07;;
50291;SDS011;36190;54.980;73.388;2022-07-23T10:24:40;8.43;;;4.45;;
50291;SDS011;36190;54.980;73.388;2022-07-23T10:30:18;7.95;;;4.20;;
50291;SDS011;36190;54.980;73.388;2022-07-23T10:32:57;10.40;;;4.43;;
50291;SDS011;36190;54.980;73.388;2022-07-23T10:35:49;9.30;;;4.10;;
50291;SDS011;36190;54.980;73.388;2022-07-23T10:38:21;8.27;;;4.00;;
50291;SDS011;36190;54.980;73.388;2022-07-23T10:40:55;9.32;;;4.38;;
50291;SDS011;36190;54.980;73.388;2022-07-23T10:43:25;9.52;;;3.83;;
50291;SDS011;36190;54.980;73.388;2022-07-23T10:45:56;12.73;;;4.00;;
50291;SDS011;36190;54.980;73.388;2022-07-23T10:48:43;9.57;;;4.18;;
50291;SDS011;36190;54.980;73.388;2022-07-23T10:51:11;7.40;;;3.70;;
50291;SDS011;36190;54.980;73.388;2022-07-23T10:53:56;8.20;;;3.92;;
50291;SDS011;36190;54.980;73.388;2022-07-23T10:59:18;10.53;;;4.10;;
50291;SDS011;36190;54.980;73.388;2022-07-23T11:01:45;8.20;;;4.00;;
50291;SDS011;36190;54.980;73.388;2022-07-23T11:04:13;11.57;;;4.38;;
50291;SDS011;36190;54.980;73.388;2022-07-23T11:09:41;9.75;;;4.55;;
50291;SDS011;36190;54.980;73.388;2022-07-23T11:15:12;10.55;;;4.25;;
50291;SDS011;36190;54.980;73.388;2022-07-23T11:17:58;17.27;;;4.53;;
50291;SDS011;36190;54.980;73.388;2022-07-23T11:20:26;12.10;;;3.75;;
50291;SDS011;36190;54.980;73.388;2022-07-23T11:22:54;9.90;;;3.83;;
50291;SDS011;36190;54.980;73.388;2022-07-23T11:25:30;14.88;;;4.50;;
50291;SDS011;36190;54.980;73.388;2022-07-23T11:28:12;8.40;;;3.53;;
50291;SDS011;36190;54.980;73.388;2022-07-23T11:30:44;15.07;;;4.22;;
50291;SDS011;36190;54.980;73.388;2022-07-23T11:33:17;10.00;;;3.80;;
50291;SDS011;36190;54.980;73.388;2022-07-23T11:35:46;9.27;;;3.65;;
50291;SDS011;36190;54.980;73.388;2022-07-23T11:38:16;17.02;;;4.45;;
50291;SDS011;36190;54.980;73.388;2022-07-23T11:40:45;10.85;;;4.38;;
50291;SDS011;36190;54.980;73.388;2022-07-23T11:43:14;9.73;;;4.13;;
50291;SDS011;36190;54.980;73.388;2022-07-23T11:45:42;9.15;;;4.22;;
50291;SDS011;36190;54.980;73.388;2022-07-23T11:48:15;9.10;;;3.38;;
50291;SDS011;36190;54.980;73.388;2022-07-23T11:50:44;9.32;;;3.40;;
50291;SDS011;36190;54.980;73.388;2022-07-23T11:53:12;6.70;;;3.25;;
50291;SDS011;36190;54.980;73.388;2022-07-23T11:55:40;8.02;;;3.08;;
50291;SDS011;36190;54.980;73.388;2022-07-23T11:58:07;8.05;;;3.20;;
50291;SDS011;36190;54.980;73.388;2022-07-23T12:00:35;9.75;;;3.80;;
50291;SDS011;36190;54.980;73.388;2022-07-23T12:03:08;7.90;;;3.25;;
50291;SDS011;36190;54.980;73.388;2022-07-23T12:05:36;7.32;;;3.17;;
50291;SDS011;36190;54.980;73.388;2022-07-23T12:08:05;15.20;;;3.83;;
50291;SDS011;36190;54.980;73.388;2022-07-23T12:10:34;7.28;;;3.13;;
50291;SDS011;36190;54.980;73.388;2022-07-23T12:13:03;8.20;;;3.40;;
50291;SDS011;36190;54.980;73.388;2022-07-23T12:15:33;9.48;;;3.33;;
50291;SDS011;36190;54.980;73.388;2022-07-23T12:18:05;6.25;;;3.17;;
50291;SDS011;36190;54.980;73.388;2022-07-23T12:20:36;11.60;;;3.55;;
50291;SDS011;36190;54.980;73.388;2022-07-23T12:23:05;12.00;;;3.90;;
50291;SDS011;36190;54.980;73.388;2022-07-23T12:25:35;12.27;;;4.00;;
50291;SDS011;36190;54.980;73.388;2022-07-23T12:28:04;11.30;;;3.80;;
50291;SDS011;36190;54.980;73.388;2022-07-23T12:30:34;13.77;;;4.18;;
50291;SDS011;36190;54.980;73.388;2022-07-23T12:33:05;14.68;;;4.60;;
50291;SDS011;36190;54.980;73.388;2022-07-23T12:35:36;13.00;;;4.45;;
50291;SDS011;36190;54.980;73.388;2022-07-23T12:38:07;12.18;;;4.28;;
50291;SDS011;36190;54.980;73.388;2022-07-23T12:40:36;12.18;;;4.53;;
50291;SDS011;36190;54.980;73.388;2022-07-23T12:43:08;11.13;;;4.18;;
50291;SDS011;36190;54.980;73.388;2022-07-23T12:45:44;11.15;;;3.80;;
50291;SDS011;36190;54.980;73.388;2022-07-23T12:48:20;13.52;;;4.55;;
50291;SDS011;36190;54.980;73.388;2022-07-23T12:50:51;9.70;;;3.80;;
50291;SDS011;36190;54.980;73.388;2022-07-23T12:53:21;7.55;;;3.58;;
50291;SDS011;36190;54.980;73.388;2022-07-23T12:55:50;7.43;;;3.60;;
50291;SDS011;36190;54.980;73.388;2022-07-23T12:58:24;8.23;;;3.38;;
50291;SDS011;36190;54.980;73.388;2022-07-23T13:00:55;7.95;;;3.42;;
50291;SDS011;36190;54.980;73.388;2022-07-23T13:03:26;9.05;;;3.83;;
50291;SDS011;36190;54.980;73.388;2022-07-23T13:08:27;10.30;;;4.20;;
50291;SDS011;36190;54.980;73.388;2022-07-23T13:10:56;13.07;;;3.90;;
50291;SDS011;36190;54.980;73.388;2022-07-23T13:13:25;11.40;;;4.10;;
50291;SDS011;36190;54.980;73.388;2022-07-23T13:15:54;11.93;;;4.60;;
50291;SDS011;36190;54.980;73.388;2022-07-23T13:18:22;10.55;;;3.75;;
50291;SDS011;36190;54.980;73.388;2022-07-23T13:20:49;12.50;;;4.15;;
50291;SDS011;36190;54.980;73.388;2022-07-23T13:23:19;9.95;;;3.97;;
50291;SDS011;36190;54.980;73.388;2022-07-23T13:25:47;9.73;;;3.70;;
50291;SDS011;36190;54.980;73.388;2022-07-23T13:28:15;13.75;;;3.90;;
50291;SDS011;36190;54.980;73.388;2022-07-23T13:30:43;9.73;;;3.67;;
50291;SDS011;36190;54.980;73.388;2022-07-23T13:33:12;7.82;;;3.88;;
50291;SDS011;36190;54.980;73.388;2022-07-23T13:35:40;8.27;;;4.05;;
50291;SDS011;36190;54.980;73.388;2022-07-23T13:38:07;9.55;;;3.60;;
50291;SDS011;36190;54.980;73.388;2022-07-23T13:40:37;8.63;;;3.97;;
50291;SDS011;36190;54.980;73.388;2022-07-23T13:43:07;9.67;;;4.60;;
50291;SDS011;36190;54.980;73.388;2022-07-23T13:45:35;13.07;;;3.90;;
50291;SDS011;36190;54.980;73.388;2022-07-23T13:48:04;10.10;;;4.15;;
50291;SDS011;36190;54.980;73.388;2022-07-23T13:50:32;11.15;;;4.10;;
50291;SDS011;36190;54.980;73.388;2022-07-23T13:53:00;11.93;;;4.25;;
50291;SDS011;36190;54.980;73.388;2022-07-23T13:55:29;10.52;;;3.80;;
50291;SDS011;36190;54.980;73.388;2022-07-23T13:57:58;10.75;;;4.10;;
50291;SDS011;36190;54.980;73.388;2022-07-23T14:00:25;8.68;;;4.15;;
50291;SDS011;36190;54.980;73.388;2022-07-23T14:02:55;13.63;;;4.90;;
50291;SDS011;36190;54.980;73.388;2022-07-23T14:05:23;10.50;;;4.50;;
50291;SDS011;36190;54.980;73.388;2022-07-23T14:07:51;8.65;;;4.45;;
50291;SDS011;36190;54.980;73.388;2022-07-23T14:10:19;8.50;;;3.53;;
50291;SDS011;36190;54.980;73.388;2022-07-23T14:12:48;11.38;;;4.20;;
50291;SDS011;36190;54.980;73.388;2022-07-23T14:15:19;10.85;;;4.43;;
50291;SDS011;36190;54.980;73.388;2022-07-23T14:17:46;8.63;;;4.20;;
50291;SDS011;36190;54.980;73.388;2022-07-23T14:20:14;8.93;;;4.40;;
50291;SDS011;36190;54.980;73.388;2022-07-23T14:22:41;11.25;;;4.20;;
50291;SDS011;36190;54.980;73.388;2022-07-23T14:25:09;9.55;;;4.10;;
50291;SDS011;36190;54.980;73.388;2022-07-23T14:27:37;8.70;;;3.75;;
50291;SDS011;36190;54.980;73.388;2022-07-23T14:30:06;9.40;;;4.32;;
50291;SDS011;36190;54.980;73.388;2022-07-23T14:32:37;10.38;;;4.43;;
50291;SDS011;36190;54.980;73.388;2022-07-23T14:35:05;11.07;;;3.92;;
50291;SDS011;36190;54.980;73.388;2022-07-23T14:37:33;9.80;;;4.60;;
50291;SDS011;36190;54.980;73.388;2022-07-23T14:40:01;10.20;;;4.97;;
50291;SDS011;36190;54.980;73.388;2022-07-23T14:42:29;11.43;;;5.38;;
50291;SDS011;36190;54.980;73.388;2022-07-23T14:44:57;9.82;;;5.38;;
50291;SDS011;36190;54.980;73.388;2022-07-23T14:47:24;14.73;;;6.55;;
50291;SDS011;36190;54.980;73.388;2022-07-23T14:49:53;14.80;;;7.20;;
50291;SDS011;36190;54.980;73.388;2022-07-23T14:52:21;14.20;;;6.68;;
50291;SDS011;36190;54.980;73.388;2022-07-23T14:54:49;12.23;;;6.32;;